sensor_id;sensor_type;location;lat;lon;timestamp;temperature;humidity
582;DHT22;277;50.074;8.436;2023-07-31T00:02:04;18.70;99.90
582;DHT22;277;50.074;8.436;2023-07-31T00:04:32;18.70;99.90
582;DHT22;277;50.074;8.436;2023-07-31T00:07:01;18.70;99.90
582;DHT22;277;50.074;8.436;2023-07-31T00:09:30;18.70;99.90
582;DHT22;277;50.074;8.436;2023-07-31T00:11:58;18.80;99.90
582;DHT22;277;50.074;8.436;2023-07-31T00:14:26;18.70;99.90
582;DHT22;277;50.074;8.436;2023-07-31T00:16:54;18.70;99.90
582;DHT22;277;50.074;8.436;2023-07-31T00:19:22;18.70;99.90
582;DHT22;277;50.074;8.436;2023-07-31T00:21:49;18.60;99.90
582;DHT22;277;50.074;8.436;2023-07-31T00:24:18;18.60;99.90
582;DHT22;277;50.074;8.436;2023-07-31T00:26:46;18.60;99.90
582;DHT22;277;50.074;8.436;2023-07-31T00:29:14;18.70;99.90
582;DHT22;277;50.074;8.436;2023-07-31T00:31:42;18.60;99.90
582;DHT22;277;50.074;8.436;2023-07-31T00:34:10;18.60;99.90
582;DHT22;277;50.074;8.436;2023-07-31T00:36:37;18.50;99.90
582;DHT22;277;50.074;8.436;2023-07-31T00:39:06;18.40;99.90
582;DHT22;277;50.074;8.436;2023-07-31T00:41:35;18.50;99.90
582;DHT22;277;50.074;8.436;2023-07-31T00:44:02;18.40;99.90
582;DHT22;277;50.074;8.436;2023-07-31T00:46:30;18.30;99.90
582;DHT22;277;50.074;8.436;2023-07-31T00:48:58;18.30;99.90
582;DHT22;277;50.074;8.436;2023-07-31T00:51:26;18.30;99.90
582;DHT22;277;50.074;8.436;2023-07-31T00:53:54;18.30;99.90
582;DHT22;277;50.074;8.436;2023-07-31T00:56:23;18.30;99.90
582;DHT22;277;50.074;8.436;2023-07-31T00:58:52;18.30;99.90
582;DHT22;277;50.074;8.436;2023-07-31T01:01:20;18.40;99.90
582;DHT22;277;50.074;8.436;2023-07-31T01:03:48;18.40;99.90
582;DHT22;277;50.074;8.436;2023-07-31T01:06:21;18.60;99.90
582;DHT22;277;50.074;8.436;2023-07-31T01:08:54;18.70;99.90
582;DHT22;277;50.074;8.436;2023-07-31T01:11:25;18.70;99.90
582;DHT22;277;50.074;8.436;2023-07-31T01:13:58;18.80;99.90
582;DHT22;277;50.074;8.436;2023-07-31T01:16:26;18.80;99.90
582;DHT22;277;50.074;8.436;2023-07-31T01:18:54;18.80;99.90
582;DHT22;277;50.074;8.436;2023-07-31T01:21:23;18.70;99.90
582;DHT22;277;50.074;8.436;2023-07-31T01:24:03;18.80;99.90
582;DHT22;277;50.074;8.436;2023-07-31T01:26:34;18.70;99.90
582;DHT22;277;50.074;8.436;2023-07-31T01:29:06;18.70;99.90
582;DHT22;277;50.074;8.436;2023-07-31T01:31:34;18.60;99.90
582;DHT22;277;50.074;8.436;2023-07-31T01:34:04;18.60;99.90
582;DHT22;277;50.074;8.436;2023-07-31T01:36:32;18.50;99.90
582;DHT22;277;50.074;8.436;2023-07-31T01:39:00;18.50;99.90
582;DHT22;277;50.074;8.436;2023-07-31T01:41:28;18.40;99.90
582;DHT22;277;50.074;8.436;2023-07-31T01:43:57;18.30;99.90
582;DHT22;277;50.074;8.436;2023-07-31T01:46:25;18.20;99.90
582;DHT22;277;50.074;8.436;2023-07-31T01:48:52;18.20;99.90
582;DHT22;277;50.074;8.436;2023-07-31T01:51:35;18.20;99.90
582;DHT22;277;50.074;8.436;2023-07-31T01:54:03;18.30;99.90
582;DHT22;277;50.074;8.436;2023-07-31T01:56:38;18.30;99.90
582;DHT22;277;50.074;8.436;2023-07-31T01:59:08;18.40;99.90
582;DHT22;277;50.074;8.436;2023-07-31T02:01:35;18.40;99.90
582;DHT22;277;50.074;8.436;2023-07-31T02:04:03;18.40;99.90
582;DHT22;277;50.074;8.436;2023-07-31T02:06:31;18.40;99.90
582;DHT22;277;50.074;8.436;2023-07-31T02:08:59;18.50;99.90
582;DHT22;277;50.074;8.436;2023-07-31T02:11:27;18.40;99.90
582;DHT22;277;50.074;8.436;2023-07-31T02:13:55;18.30;99.90
582;DHT22;277;50.074;8.436;2023-07-31T02:16:24;18.20;99.90
582;DHT22;277;50.074;8.436;2023-07-31T02:18:55;18.20;99.90
582;DHT22;277;50.074;8.436;2023-07-31T02:21:23;18.20;99.90
582;DHT22;277;50.074;8.436;2023-07-31T02:23:51;18.30;99.90
582;DHT22;277;50.074;8.436;2023-07-31T02:26:19;18.30;99.90
582;DHT22;277;50.074;8.436;2023-07-31T02:28:47;18.40;99.90
582;DHT22;277;50.074;8.436;2023-07-31T02:31:15;18.30;99.90
582;DHT22;277;50.074;8.436;2023-07-31T02:33:46;18.40;99.90
582;DHT22;277;50.074;8.436;2023-07-31T02:36:14;18.30;99.90
582;DHT22;277;50.074;8.436;2023-07-31T02:38:42;18.30;99.90
582;DHT22;277;50.074;8.436;2023-07-31T02:41:10;18.30;99.90
582;DHT22;277;50.074;8.436;2023-07-31T02:43:38;18.20;99.90
582;DHT22;277;50.074;8.436;2023-07-31T02:46:06;18.30;99.90
582;DHT22;277;50.074;8.436;2023-07-31T02:48:34;18.30;99.90
582;DHT22;277;50.074;8.436;2023-07-31T02:51:03;18.20;99.90
582;DHT22;277;50.074;8.436;2023-07-31T02:53:31;18.40;99.90
582;DHT22;277;50.074;8.436;2023-07-31T02:55:59;18.30;99.90
582;DHT22;277;50.074;8.436;2023-07-31T02:58:27;18.20;99.90
582;DHT22;277;50.074;8.436;2023-07-31T03:00:55;18.20;99.90
582;DHT22;277;50.074;8.436;2023-07-31T03:03:23;18.10;99.90
582;DHT22;277;50.074;8.436;2023-07-31T03:05:51;18.20;99.90
582;DHT22;277;50.074;8.436;2023-07-31T03:08:20;18.10;99.90
582;DHT22;277;50.074;8.436;2023-07-31T03:10:48;18.00;99.90
582;DHT22;277;50.074;8.436;2023-07-31T03:13:16;17.90;99.90
582;DHT22;277;50.074;8.436;2023-07-31T03:15:44;17.90;99.90
582;DHT22;277;50.074;8.436;2023-07-31T03:18:12;17.90;99.90
582;DHT22;277;50.074;8.436;2023-07-31T03:20:42;17.90;99.90
582;DHT22;277;50.074;8.436;2023-07-31T03:23:10;17.90;99.90
582;DHT22;277;50.074;8.436;2023-07-31T03:25:41;17.90;99.90
582;DHT22;277;50.074;8.436;2023-07-31T03:28:09;17.90;99.90
582;DHT22;277;50.074;8.436;2023-07-31T03:30:37;17.90;99.90
582;DHT22;277;50.074;8.436;2023-07-31T03:33:05;17.90;99.90
582;DHT22;277;50.074;8.436;2023-07-31T03:35:33;18.10;99.90
582;DHT22;277;50.074;8.436;2023-07-31T03:38:01;18.20;99.90
582;DHT22;277;50.074;8.436;2023-07-31T03:40:29;18.20;99.90
582;DHT22;277;50.074;8.436;2023-07-31T03:42:58;18.20;99.90
582;DHT22;277;50.074;8.436;2023-07-31T03:45:26;18.20;99.90
582;DHT22;277;50.074;8.436;2023-07-31T03:47:54;18.30;99.90
582;DHT22;277;50.074;8.436;2023-07-31T03:50:22;18.40;99.90
582;DHT22;277;50.074;8.436;2023-07-31T03:52:52;18.50;99.90
582;DHT22;277;50.074;8.436;2023-07-31T03:55:20;18.60;99.90
582;DHT22;277;50.074;8.436;2023-07-31T03:57:48;18.50;99.90
582;DHT22;277;50.074;8.436;2023-07-31T04:00:17;18.40;99.90
582;DHT22;277;50.074;8.436;2023-07-31T04:02:45;18.50;99.90
582;DHT22;277;50.074;8.436;2023-07-31T04:05:13;18.50;99.90
582;DHT22;277;50.074;8.436;2023-07-31T04:07:40;18.40;99.90
582;DHT22;277;50.074;8.436;2023-07-31T04:10:08;18.50;99.90
582;DHT22;277;50.074;8.436;2023-07-31T04:12:39;18.50;99.90
582;DHT22;277;50.074;8.436;2023-07-31T04:15:07;18.50;99.90
582;DHT22;277;50.074;8.436;2023-07-31T04:17:36;18.50;99.90
582;DHT22;277;50.074;8.436;2023-07-31T04:20:04;18.40;99.90
582;DHT22;277;50.074;8.436;2023-07-31T04:22:32;18.30;99.90
582;DHT22;277;50.074;8.436;2023-07-31T04:25:00;18.30;99.90
582;DHT22;277;50.074;8.436;2023-07-31T04:27:28;18.30;99.90
582;DHT22;277;50.074;8.436;2023-07-31T04:29:55;18.30;99.90
582;DHT22;277;50.074;8.436;2023-07-31T04:32:23;18.20;99.90
582;DHT22;277;50.074;8.436;2023-07-31T04:34:52;18.20;99.90
582;DHT22;277;50.074;8.436;2023-07-31T04:37:20;18.10;99.90
582;DHT22;277;50.074;8.436;2023-07-31T04:39:48;18.10;99.90
582;DHT22;277;50.074;8.436;2023-07-31T04:42:15;18.00;99.90
582;DHT22;277;50.074;8.436;2023-07-31T04:44:43;17.90;99.90
582;DHT22;277;50.074;8.436;2023-07-31T04:47:11;17.90;99.90
582;DHT22;277;50.074;8.436;2023-07-31T04:49:39;18.00;99.90
582;DHT22;277;50.074;8.436;2023-07-31T04:52:08;18.00;99.90
582;DHT22;277;50.074;8.436;2023-07-31T04:54:36;18.10;99.90
582;DHT22;277;50.074;8.436;2023-07-31T04:57:03;18.10;99.90
582;DHT22;277;50.074;8.436;2023-07-31T04:59:31;18.00;99.90
582;DHT22;277;50.074;8.436;2023-07-31T05:01:59;18.00;99.90
582;DHT22;277;50.074;8.436;2023-07-31T05:04:27;18.00;99.90
582;DHT22;277;50.074;8.436;2023-07-31T05:06:55;18.00;99.90
582;DHT22;277;50.074;8.436;2023-07-31T05:09:24;18.00;99.90
582;DHT22;277;50.074;8.436;2023-07-31T05:11:52;18.00;99.90
582;DHT22;277;50.074;8.436;2023-07-31T05:14:19;18.10;99.90
582;DHT22;277;50.074;8.436;2023-07-31T05:16:47;18.00;99.90
582;DHT22;277;50.074;8.436;2023-07-31T05:19:15;17.90;99.90
582;DHT22;277;50.074;8.436;2023-07-31T05:21:43;17.90;99.90
582;DHT22;277;50.074;8.436;2023-07-31T05:24:11;18.00;99.90
582;DHT22;277;50.074;8.436;2023-07-31T05:26:40;18.10;99.90
582;DHT22;277;50.074;8.436;2023-07-31T05:29:08;18.00;99.90
582;DHT22;277;50.074;8.436;2023-07-31T05:31:35;18.00;99.90
582;DHT22;277;50.074;8.436;2023-07-31T05:34:05;18.00;99.90
582;DHT22;277;50.074;8.436;2023-07-31T05:36:32;17.90;99.90
582;DHT22;277;50.074;8.436;2023-07-31T05:39:00;17.90;99.90
582;DHT22;277;50.074;8.436;2023-07-31T05:41:32;17.90;99.90
582;DHT22;277;50.074;8.436;2023-07-31T05:44:02;17.90;99.90
582;DHT22;277;50.074;8.436;2023-07-31T05:46:30;17.90;99.90
582;DHT22;277;50.074;8.436;2023-07-31T05:48:58;17.90;99.90
582;DHT22;277;50.074;8.436;2023-07-31T05:51:27;18.00;99.90
582;DHT22;277;50.074;8.436;2023-07-31T05:53:55;18.00;99.90
582;DHT22;277;50.074;8.436;2023-07-31T05:56:23;18.10;99.90
582;DHT22;277;50.074;8.436;2023-07-31T05:58:51;18.10;99.90
582;DHT22;277;50.074;8.436;2023-07-31T06:01:20;18.10;99.90
582;DHT22;277;50.074;8.436;2023-07-31T06:03:48;18.00;99.90
582;DHT22;277;50.074;8.436;2023-07-31T06:06:16;18.10;99.90
582;DHT22;277;50.074;8.436;2023-07-31T06:08:44;18.20;99.90
582;DHT22;277;50.074;8.436;2023-07-31T06:11:11;18.10;99.90
582;DHT22;277;50.074;8.436;2023-07-31T06:13:39;18.30;99.90
582;DHT22;277;50.074;8.436;2023-07-31T06:16:09;18.40;99.90
582;DHT22;277;50.074;8.436;2023-07-31T06:18:39;18.40;99.90
582;DHT22;277;50.074;8.436;2023-07-31T06:21:06;18.50;99.90
582;DHT22;277;50.074;8.436;2023-07-31T06:23:34;18.40;99.90
582;DHT22;277;50.074;8.436;2023-07-31T06:26:02;18.40;99.90
582;DHT22;277;50.074;8.436;2023-07-31T06:28:30;18.40;99.90
582;DHT22;277;50.074;8.436;2023-07-31T06:30:58;18.30;99.90
582;DHT22;277;50.074;8.436;2023-07-31T06:33:26;18.40;99.90
582;DHT22;277;50.074;8.436;2023-07-31T06:35:55;18.40;99.90
582;DHT22;277;50.074;8.436;2023-07-31T06:38:24;18.40;99.90
582;DHT22;277;50.074;8.436;2023-07-31T06:40:52;18.40;99.90
582;DHT22;277;50.074;8.436;2023-07-31T06:43:20;18.30;99.90
582;DHT22;277;50.074;8.436;2023-07-31T06:45:47;18.30;99.90
582;DHT22;277;50.074;8.436;2023-07-31T06:48:18;18.30;99.90
582;DHT22;277;50.074;8.436;2023-07-31T06:50:45;18.30;99.90
582;DHT22;277;50.074;8.436;2023-07-31T06:53:14;18.50;99.90
582;DHT22;277;50.074;8.436;2023-07-31T06:55:42;18.60;99.90
582;DHT22;277;50.074;8.436;2023-07-31T06:58:10;18.60;99.90
582;DHT22;277;50.074;8.436;2023-07-31T07:00:38;18.60;99.90
582;DHT22;277;50.074;8.436;2023-07-31T07:03:05;18.60;99.90
582;DHT22;277;50.074;8.436;2023-07-31T07:05:33;18.70;99.90
582;DHT22;277;50.074;8.436;2023-07-31T07:08:01;18.80;99.90
582;DHT22;277;50.074;8.436;2023-07-31T07:10:30;18.80;99.90
582;DHT22;277;50.074;8.436;2023-07-31T07:12:58;18.80;99.90
582;DHT22;277;50.074;8.436;2023-07-31T07:15:26;18.90;99.90
582;DHT22;277;50.074;8.436;2023-07-31T07:17:54;19.00;99.90
582;DHT22;277;50.074;8.436;2023-07-31T07:20:21;19.20;99.90
582;DHT22;277;50.074;8.436;2023-07-31T07:22:49;19.30;99.90
582;DHT22;277;50.074;8.436;2023-07-31T07:25:17;19.50;99.90
582;DHT22;277;50.074;8.436;2023-07-31T07:27:46;19.70;99.90
582;DHT22;277;50.074;8.436;2023-07-31T07:30:14;19.90;99.90
582;DHT22;277;50.074;8.436;2023-07-31T07:32:42;20.00;99.90
582;DHT22;277;50.074;8.436;2023-07-31T07:35:10;20.10;99.90
582;DHT22;277;50.074;8.436;2023-07-31T07:37:37;20.10;99.90
582;DHT22;277;50.074;8.436;2023-07-31T07:40:06;20.30;99.90
582;DHT22;277;50.074;8.436;2023-07-31T07:42:34;20.20;99.90
582;DHT22;277;50.074;8.436;2023-07-31T07:45:03;20.20;99.90
582;DHT22;277;50.074;8.436;2023-07-31T07:47:31;20.20;99.90
582;DHT22;277;50.074;8.436;2023-07-31T07:49:59;20.20;99.90
582;DHT22;277;50.074;8.436;2023-07-31T07:52:27;20.20;99.90
582;DHT22;277;50.074;8.436;2023-07-31T07:54:55;20.40;99.90
582;DHT22;277;50.074;8.436;2023-07-31T07:57:23;20.40;99.90
582;DHT22;277;50.074;8.436;2023-07-31T07:59:52;20.40;99.90
582;DHT22;277;50.074;8.436;2023-07-31T08:02:21;20.40;99.90
582;DHT22;277;50.074;8.436;2023-07-31T08:04:49;20.40;99.90
582;DHT22;277;50.074;8.436;2023-07-31T08:07:16;20.40;99.90
582;DHT22;277;50.074;8.436;2023-07-31T08:09:44;20.40;99.90
582;DHT22;277;50.074;8.436;2023-07-31T08:12:12;20.30;99.90
582;DHT22;277;50.074;8.436;2023-07-31T08:14:40;20.30;99.90
582;DHT22;277;50.074;8.436;2023-07-31T08:17:07;20.20;99.90
582;DHT22;277;50.074;8.436;2023-07-31T08:19:37;20.30;99.90
582;DHT22;277;50.074;8.436;2023-07-31T08:22:05;20.40;99.90
582;DHT22;277;50.074;8.436;2023-07-31T08:24:33;20.50;99.90
582;DHT22;277;50.074;8.436;2023-07-31T08:27:00;20.60;99.90
582;DHT22;277;50.074;8.436;2023-07-31T08:29:28;20.60;99.90
582;DHT22;277;50.074;8.436;2023-07-31T08:31:56;20.60;99.90
582;DHT22;277;50.074;8.436;2023-07-31T08:34:23;20.60;99.90
582;DHT22;277;50.074;8.436;2023-07-31T08:36:53;20.60;99.90
582;DHT22;277;50.074;8.436;2023-07-31T08:39:20;20.60;99.90
582;DHT22;277;50.074;8.436;2023-07-31T08:41:48;20.70;99.90
582;DHT22;277;50.074;8.436;2023-07-31T08:44:16;20.90;99.90
582;DHT22;277;50.074;8.436;2023-07-31T08:46:44;20.90;99.90
582;DHT22;277;50.074;8.436;2023-07-31T08:49:13;21.10;99.90
582;DHT22;277;50.074;8.436;2023-07-31T08:51:41;21.10;99.90
582;DHT22;277;50.074;8.436;2023-07-31T08:54:11;21.10;99.90
582;DHT22;277;50.074;8.436;2023-07-31T08:56:39;21.00;99.90
582;DHT22;277;50.074;8.436;2023-07-31T08:59:07;21.00;99.90
582;DHT22;277;50.074;8.436;2023-07-31T09:01:36;21.00;99.90
582;DHT22;277;50.074;8.436;2023-07-31T09:04:05;21.00;99.90
582;DHT22;277;50.074;8.436;2023-07-31T09:06:35;21.10;99.90
582;DHT22;277;50.074;8.436;2023-07-31T09:09:03;21.30;99.90
582;DHT22;277;50.074;8.436;2023-07-31T09:11:32;21.50;99.90
582;DHT22;277;50.074;8.436;2023-07-31T09:14:01;21.40;99.90
582;DHT22;277;50.074;8.436;2023-07-31T09:16:35;21.40;99.90
582;DHT22;277;50.074;8.436;2023-07-31T09:19:03;21.40;99.90
582;DHT22;277;50.074;8.436;2023-07-31T09:21:31;21.60;99.90
582;DHT22;277;50.074;8.436;2023-07-31T09:23:59;21.70;99.90
582;DHT22;277;50.074;8.436;2023-07-31T09:26:29;21.90;99.90
582;DHT22;277;50.074;8.436;2023-07-31T09:28:59;22.00;99.90
582;DHT22;277;50.074;8.436;2023-07-31T09:31:32;22.10;99.90
582;DHT22;277;50.074;8.436;2023-07-31T09:34:02;22.00;99.90
582;DHT22;277;50.074;8.436;2023-07-31T09:36:30;21.70;99.90
582;DHT22;277;50.074;8.436;2023-07-31T09:39:01;21.50;99.90
582;DHT22;277;50.074;8.436;2023-07-31T09:41:29;21.40;99.90
582;DHT22;277;50.074;8.436;2023-07-31T09:43:56;21.20;99.90
582;DHT22;277;50.074;8.436;2023-07-31T09:46:27;21.00;99.90
582;DHT22;277;50.074;8.436;2023-07-31T09:49:03;21.00;99.90
582;DHT22;277;50.074;8.436;2023-07-31T09:51:31;21.00;99.90
582;DHT22;277;50.074;8.436;2023-07-31T09:54:10;21.00;99.90
582;DHT22;277;50.074;8.436;2023-07-31T09:56:41;21.20;99.90
582;DHT22;277;50.074;8.436;2023-07-31T09:59:10;21.30;99.90
582;DHT22;277;50.074;8.436;2023-07-31T10:01:41;21.30;99.90
582;DHT22;277;50.074;8.436;2023-07-31T10:04:09;21.40;99.90
582;DHT22;277;50.074;8.436;2023-07-31T10:06:37;21.60;99.90
582;DHT22;277;50.074;8.436;2023-07-31T10:09:07;21.70;99.90
582;DHT22;277;50.074;8.436;2023-07-31T10:11:37;21.70;99.90
582;DHT22;277;50.074;8.436;2023-07-31T10:14:05;21.70;99.90
582;DHT22;277;50.074;8.436;2023-07-31T10:16:35;21.70;99.90
582;DHT22;277;50.074;8.436;2023-07-31T10:19:05;21.80;99.90
582;DHT22;277;50.074;8.436;2023-07-31T10:21:33;21.80;99.90
582;DHT22;277;50.074;8.436;2023-07-31T10:24:02;21.80;99.90
582;DHT22;277;50.074;8.436;2023-07-31T10:26:30;21.70;99.90
582;DHT22;277;50.074;8.436;2023-07-31T10:28:58;21.80;99.90
582;DHT22;277;50.074;8.436;2023-07-31T10:31:27;21.80;99.90
582;DHT22;277;50.074;8.436;2023-07-31T10:33:55;21.90;99.90
582;DHT22;277;50.074;8.436;2023-07-31T10:36:26;21.90;99.90
582;DHT22;277;50.074;8.436;2023-07-31T10:38:55;21.90;99.90
582;DHT22;277;50.074;8.436;2023-07-31T10:41:28;21.90;99.90
582;DHT22;277;50.074;8.436;2023-07-31T10:43:57;22.10;99.90
582;DHT22;277;50.074;8.436;2023-07-31T10:46:25;22.10;99.90
582;DHT22;277;50.074;8.436;2023-07-31T10:48:57;22.10;99.90
582;DHT22;277;50.074;8.436;2023-07-31T10:51:26;22.10;99.90
582;DHT22;277;50.074;8.436;2023-07-31T10:54:10;22.20;99.90
582;DHT22;277;50.074;8.436;2023-07-31T10:56:38;22.30;99.90
582;DHT22;277;50.074;8.436;2023-07-31T10:59:07;22.40;99.90
582;DHT22;277;50.074;8.436;2023-07-31T11:01:51;22.40;99.90
582;DHT22;277;50.074;8.436;2023-07-31T11:04:23;22.50;99.90
582;DHT22;277;50.074;8.436;2023-07-31T11:06:59;22.50;99.90
582;DHT22;277;50.074;8.436;2023-07-31T11:09:27;22.70;99.90
582;DHT22;277;50.074;8.436;2023-07-31T11:11:57;22.70;99.90
582;DHT22;277;50.074;8.436;2023-07-31T11:14:26;22.70;99.90
582;DHT22;277;50.074;8.436;2023-07-31T11:16:54;22.60;99.90
582;DHT22;277;50.074;8.436;2023-07-31T11:19:22;22.50;99.90
582;DHT22;277;50.074;8.436;2023-07-31T11:21:50;22.50;99.90
582;DHT22;277;50.074;8.436;2023-07-31T11:24:19;22.50;99.90
582;DHT22;277;50.074;8.436;2023-07-31T11:26:49;22.40;99.90
582;DHT22;277;50.074;8.436;2023-07-31T11:29:16;22.30;99.90
582;DHT22;277;50.074;8.436;2023-07-31T11:31:45;22.30;99.90
582;DHT22;277;50.074;8.436;2023-07-31T11:34:13;22.30;99.90
582;DHT22;277;50.074;8.436;2023-07-31T11:36:42;22.30;99.90
582;DHT22;277;50.074;8.436;2023-07-31T11:39:21;22.20;99.90
582;DHT22;277;50.074;8.436;2023-07-31T11:41:49;22.20;99.90
582;DHT22;277;50.074;8.436;2023-07-31T11:44:17;22.30;99.90
582;DHT22;277;50.074;8.436;2023-07-31T11:46:53;22.40;99.90
582;DHT22;277;50.074;8.436;2023-07-31T11:49:23;22.40;99.90
582;DHT22;277;50.074;8.436;2023-07-31T11:51:51;22.50;99.90
582;DHT22;277;50.074;8.436;2023-07-31T11:54:20;22.50;99.90
582;DHT22;277;50.074;8.436;2023-07-31T11:56:48;22.50;99.90
582;DHT22;277;50.074;8.436;2023-07-31T11:59:17;22.50;99.90
582;DHT22;277;50.074;8.436;2023-07-31T12:01:45;22.50;99.90
582;DHT22;277;50.074;8.436;2023-07-31T12:04:13;22.50;99.90
582;DHT22;277;50.074;8.436;2023-07-31T12:06:41;22.40;99.90
582;DHT22;277;50.074;8.436;2023-07-31T12:09:09;22.40;99.90
582;DHT22;277;50.074;8.436;2023-07-31T12:11:43;22.40;99.90
582;DHT22;277;50.074;8.436;2023-07-31T12:14:19;22.30;99.90
582;DHT22;277;50.074;8.436;2023-07-31T12:16:47;22.30;99.90
582;DHT22;277;50.074;8.436;2023-07-31T12:19:15;22.20;99.90
582;DHT22;277;50.074;8.436;2023-07-31T12:21:42;22.20;99.90
582;DHT22;277;50.074;8.436;2023-07-31T12:24:10;22.20;99.90
582;DHT22;277;50.074;8.436;2023-07-31T12:26:38;22.10;99.90
582;DHT22;277;50.074;8.436;2023-07-31T12:29:08;22.10;99.90
582;DHT22;277;50.074;8.436;2023-07-31T12:31:35;22.10;99.90
582;DHT22;277;50.074;8.436;2023-07-31T12:34:03;22.10;99.90
582;DHT22;277;50.074;8.436;2023-07-31T12:36:41;22.10;99.90
582;DHT22;277;50.074;8.436;2023-07-31T12:39:09;22.10;99.90
582;DHT22;277;50.074;8.436;2023-07-31T12:41:37;22.20;99.90
582;DHT22;277;50.074;8.436;2023-07-31T12:44:05;22.30;99.90
582;DHT22;277;50.074;8.436;2023-07-31T12:46:35;22.40;99.90
582;DHT22;277;50.074;8.436;2023-07-31T12:49:03;22.60;99.90
582;DHT22;277;50.074;8.436;2023-07-31T12:51:31;22.90;99.90
582;DHT22;277;50.074;8.436;2023-07-31T12:53:59;23.30;99.90
582;DHT22;277;50.074;8.436;2023-07-31T12:56:26;23.70;99.90
582;DHT22;277;50.074;8.436;2023-07-31T12:58:54;23.80;99.90
582;DHT22;277;50.074;8.436;2023-07-31T13:01:22;24.10;99.90
582;DHT22;277;50.074;8.436;2023-07-31T13:03:51;24.00;99.90
582;DHT22;277;50.074;8.436;2023-07-31T13:06:19;23.90;99.90
582;DHT22;277;50.074;8.436;2023-07-31T13:08:47;24.00;99.90
582;DHT22;277;50.074;8.436;2023-07-31T13:11:15;24.20;99.90
582;DHT22;277;50.074;8.436;2023-07-31T13:13:42;24.30;99.90
582;DHT22;277;50.074;8.436;2023-07-31T13:16:10;24.40;99.90
582;DHT22;277;50.074;8.436;2023-07-31T13:18:38;24.60;99.90
582;DHT22;277;50.074;8.436;2023-07-31T13:21:07;24.90;99.90
582;DHT22;277;50.074;8.436;2023-07-31T13:23:35;25.20;99.90
582;DHT22;277;50.074;8.436;2023-07-31T13:26:03;25.30;99.90
582;DHT22;277;50.074;8.436;2023-07-31T13:28:30;25.30;99.90
582;DHT22;277;50.074;8.436;2023-07-31T13:30:58;25.10;99.90
582;DHT22;277;50.074;8.436;2023-07-31T13:33:26;24.80;99.90
582;DHT22;277;50.074;8.436;2023-07-31T13:36:03;24.60;99.90
582;DHT22;277;50.074;8.436;2023-07-31T13:38:33;24.50;99.90
582;DHT22;277;50.074;8.436;2023-07-31T13:41:00;24.30;99.90
582;DHT22;277;50.074;8.436;2023-07-31T13:43:28;24.00;99.90
582;DHT22;277;50.074;8.436;2023-07-31T13:45:56;23.90;99.90
582;DHT22;277;50.074;8.436;2023-07-31T13:48:29;23.80;99.90
582;DHT22;277;50.074;8.436;2023-07-31T13:50:57;23.70;99.90
582;DHT22;277;50.074;8.436;2023-07-31T13:53:25;23.40;99.90
582;DHT22;277;50.074;8.436;2023-07-31T13:55:54;23.20;99.90
582;DHT22;277;50.074;8.436;2023-07-31T13:58:22;23.10;99.90
582;DHT22;277;50.074;8.436;2023-07-31T14:00:50;23.00;99.90
582;DHT22;277;50.074;8.436;2023-07-31T14:03:18;22.90;99.90
582;DHT22;277;50.074;8.436;2023-07-31T14:05:46;22.80;99.90
582;DHT22;277;50.074;8.436;2023-07-31T14:08:14;22.70;99.90
582;DHT22;277;50.074;8.436;2023-07-31T14:10:41;22.60;99.90
582;DHT22;277;50.074;8.436;2023-07-31T14:13:11;22.50;99.90
582;DHT22;277;50.074;8.436;2023-07-31T14:15:39;22.40;99.90
582;DHT22;277;50.074;8.436;2023-07-31T14:18:07;22.40;99.90
582;DHT22;277;50.074;8.436;2023-07-31T14:20:35;22.30;99.90
582;DHT22;277;50.074;8.436;2023-07-31T14:23:03;22.20;99.90
582;DHT22;277;50.074;8.436;2023-07-31T14:25:31;22.10;99.90
582;DHT22;277;50.074;8.436;2023-07-31T14:27:59;22.10;99.90
582;DHT22;277;50.074;8.436;2023-07-31T14:30:28;22.00;99.90
582;DHT22;277;50.074;8.436;2023-07-31T14:32:56;22.10;99.90
582;DHT22;277;50.074;8.436;2023-07-31T14:35:24;22.10;99.90
582;DHT22;277;50.074;8.436;2023-07-31T14:37:52;22.10;99.90
582;DHT22;277;50.074;8.436;2023-07-31T14:40:20;22.10;99.90
582;DHT22;277;50.074;8.436;2023-07-31T14:42:47;22.10;99.90
582;DHT22;277;50.074;8.436;2023-07-31T14:45:15;22.20;99.90
582;DHT22;277;50.074;8.436;2023-07-31T14:47:44;22.20;99.90
582;DHT22;277;50.074;8.436;2023-07-31T14:50:12;22.20;99.90
582;DHT22;277;50.074;8.436;2023-07-31T14:52:40;22.20;99.90
582;DHT22;277;50.074;8.436;2023-07-31T14:55:08;22.20;99.90
582;DHT22;277;50.074;8.436;2023-07-31T14:57:36;22.20;99.90
582;DHT22;277;50.074;8.436;2023-07-31T15:00:04;22.20;99.90
582;DHT22;277;50.074;8.436;2023-07-31T15:02:34;22.00;99.90
582;DHT22;277;50.074;8.436;2023-07-31T15:05:04;21.90;99.90
582;DHT22;277;50.074;8.436;2023-07-31T15:07:32;21.90;99.90
582;DHT22;277;50.074;8.436;2023-07-31T15:10:01;21.70;99.90
582;DHT22;277;50.074;8.436;2023-07-31T15:12:29;21.70;99.90
582;DHT22;277;50.074;8.436;2023-07-31T15:14:57;21.70;99.90
582;DHT22;277;50.074;8.436;2023-07-31T15:17:24;21.60;99.90
582;DHT22;277;50.074;8.436;2023-07-31T15:19:53;21.60;99.90
582;DHT22;277;50.074;8.436;2023-07-31T15:22:22;21.60;99.90
582;DHT22;277;50.074;8.436;2023-07-31T15:24:51;21.50;99.90
582;DHT22;277;50.074;8.436;2023-07-31T15:27:19;21.50;99.90
582;DHT22;277;50.074;8.436;2023-07-31T15:29:46;21.40;99.90
582;DHT22;277;50.074;8.436;2023-07-31T15:32:14;21.40;99.90
582;DHT22;277;50.074;8.436;2023-07-31T15:34:42;21.30;99.90
582;DHT22;277;50.074;8.436;2023-07-31T15:37:10;21.30;99.90
582;DHT22;277;50.074;8.436;2023-07-31T15:39:39;21.20;99.90
582;DHT22;277;50.074;8.436;2023-07-31T15:42:06;21.10;99.90
582;DHT22;277;50.074;8.436;2023-07-31T15:44:35;21.10;99.90
582;DHT22;277;50.074;8.436;2023-07-31T15:47:03;21.00;99.90
582;DHT22;277;50.074;8.436;2023-07-31T15:49:31;21.00;99.90
582;DHT22;277;50.074;8.436;2023-07-31T15:51:59;21.00;99.90
582;DHT22;277;50.074;8.436;2023-07-31T15:54:26;20.90;99.90
582;DHT22;277;50.074;8.436;2023-07-31T15:56:56;20.90;99.90
582;DHT22;277;50.074;8.436;2023-07-31T15:59:23;20.90;99.90
582;DHT22;277;50.074;8.436;2023-07-31T16:01:51;20.80;99.90
582;DHT22;277;50.074;8.436;2023-07-31T16:04:19;20.80;99.90
582;DHT22;277;50.074;8.436;2023-07-31T16:06:47;20.80;99.90
582;DHT22;277;50.074;8.436;2023-07-31T16:09:15;20.80;99.90
582;DHT22;277;50.074;8.436;2023-07-31T16:11:43;20.80;99.90
582;DHT22;277;50.074;8.436;2023-07-31T16:14:12;20.90;99.90
582;DHT22;277;50.074;8.436;2023-07-31T16:16:40;20.90;99.90
582;DHT22;277;50.074;8.436;2023-07-31T16:19:08;20.90;99.90
582;DHT22;277;50.074;8.436;2023-07-31T16:21:36;21.00;99.90
582;DHT22;277;50.074;8.436;2023-07-31T16:24:04;20.90;99.90
582;DHT22;277;50.074;8.436;2023-07-31T16:26:32;20.90;99.90
582;DHT22;277;50.074;8.436;2023-07-31T16:29:00;20.90;99.90
582;DHT22;277;50.074;8.436;2023-07-31T16:31:29;21.00;99.90
582;DHT22;277;50.074;8.436;2023-07-31T16:34:17;21.00;99.90
582;DHT22;277;50.074;8.436;2023-07-31T16:36:44;21.00;99.90
582;DHT22;277;50.074;8.436;2023-07-31T16:39:12;21.00;99.90
582;DHT22;277;50.074;8.436;2023-07-31T16:41:43;21.10;99.90
582;DHT22;277;50.074;8.436;2023-07-31T16:44:11;21.00;99.90